Ladona, Pennsylvania
Current Conditions -  °F | °C
As of 6:56 PM on Wednesday 26 Nov 2014 (Local Time) from KELZ Reporting Station
Light Snow Light Snow  
Wind Chill: 22°   Ceiling: 1000
Heat Index: 28°   Visibility: 4mi
Dew Point: 25°   Wind: 6mph
Humidity: 88%   Direction: 10°N
Pressure: 29.96"   Gusts: NA
Location:  41.7605°N, 77.9728°W
Report Text: KELZ 262356Z AUTO 01005KT 4SM -SN BR SCT004 OVC010 M02/M04 A2996 RMK AO2 CIG 008V012 SLP171 P0001 60008 T10221039 11011 21022 56007
Loading
Personal Weather Stations






























Interactive Weather Map New forecast layout! Learn more

10-Day Weather Forecast

Advertisements
Track Severe Weather on mobile